createdAt,value
2022-07-30T00:00:49.206Z,16.99
2022-07-30T00:01:47.244Z,16.85
2022-07-30T00:03:08.243Z,16.99
2022-07-30T00:03:47.644Z,16.96
2022-07-30T00:04:48.066Z,16.99
2022-07-30T00:05:48.077Z,16.99
2022-07-30T00:06:47.197Z,16.98
2022-07-30T00:07:47.173Z,16.88
2022-07-30T00:08:47.186Z,16.85
2022-07-30T00:09:47.190Z,16.88
2022-07-30T00:10:47.151Z,16.88
2022-07-30T00:11:47.141Z,16.90
2022-07-30T00:12:47.126Z,16.96
2022-07-30T00:13:47.144Z,16.85
2022-07-30T00:14:47.137Z,16.87
2022-07-30T00:15:47.103Z,16.87
2022-07-30T00:16:48.224Z,16.90
2022-07-30T00:17:49.141Z,16.84
2022-07-30T00:18:47.056Z,16.81
2022-07-30T00:19:47.591Z,16.69
2022-07-30T00:20:47.052Z,16.69
2022-07-30T00:22:08.029Z,16.66
2022-07-30T00:22:47.015Z,16.66
2022-07-30T00:24:01.620Z,16.59
2022-07-30T00:24:47.988Z,16.62
2022-07-30T00:25:49.596Z,16.63
2022-07-30T00:26:47.117Z,16.55
2022-07-30T00:27:48.023Z,16.50
2022-07-30T00:28:49.584Z,16.54
2022-07-30T00:29:46.937Z,16.51
2022-07-30T00:30:46.958Z,16.37
2022-07-30T00:31:48.129Z,16.36
2022-07-30T00:32:46.906Z,16.41
2022-07-30T00:33:46.909Z,16.40
2022-07-30T00:34:47.589Z,16.37
2022-07-30T00:35:47.602Z,16.33
2022-07-30T00:36:46.883Z,16.36
2022-07-30T00:37:46.896Z,16.34
2022-07-30T00:38:46.837Z,16.36
2022-07-30T00:39:49.573Z,16.37
2022-07-30T00:40:46.816Z,16.27
2022-07-30T00:41:46.802Z,16.32
2022-07-30T00:42:46.793Z,16.37
2022-07-30T00:43:47.875Z,16.34
2022-07-30T00:45:01.589Z,16.27
2022-07-30T00:45:47.888Z,16.18
2022-07-30T00:46:46.744Z,16.22
2022-07-30T00:47:53.596Z,16.23
2022-07-30T00:48:46.816Z,16.14
2022-07-30T00:49:47.593Z,16.13
2022-07-30T00:50:46.699Z,16.17
2022-07-30T00:51:46.700Z,16.14
2022-07-30T00:52:47.598Z,16.14
2022-07-30T00:53:46.702Z,16.16
2022-07-30T00:54:46.679Z,16.13
2022-07-30T00:55:47.711Z,16.11
2022-07-30T00:56:46.640Z,16.10
2022-07-30T00:57:46.627Z,16.06
2022-07-30T00:58:50.163Z,16.14
2022-07-30T00:59:46.607Z,16.10
2022-07-30T01:00:46.624Z,16.04
2022-07-30T01:01:46.640Z,16.10
2022-07-30T01:02:46.585Z,16.11
2022-07-30T01:03:46.628Z,16.18
2022-07-30T01:04:46.565Z,16.14
2022-07-30T01:05:46.536Z,16.18
2022-07-30T01:06:46.530Z,16.13
2022-07-30T01:07:46.509Z,16.10
2022-07-30T01:08:46.503Z,16.06
2022-07-30T01:09:48.466Z,15.95
2022-07-30T01:10:46.483Z,15.96
2022-07-30T01:11:49.241Z,15.80
2022-07-30T01:12:46.457Z,15.88
2022-07-30T01:13:47.503Z,15.84
2022-07-30T01:14:46.622Z,15.84
2022-07-30T01:15:46.456Z,15.81
2022-07-30T01:16:46.466Z,15.76
2022-07-30T01:17:46.405Z,15.76
2022-07-30T01:18:47.390Z,15.73
2022-07-30T01:19:46.635Z,15.66
2022-07-30T01:20:46.398Z,15.64
2022-07-30T01:21:47.100Z,15.56
2022-07-30T01:22:47.146Z,15.55
2022-07-30T01:23:46.336Z,15.68
2022-07-30T01:24:47.349Z,15.59
2022-07-30T01:25:47.098Z,15.68
2022-07-30T01:26:46.331Z,15.71
2022-07-30T01:27:46.313Z,15.70
2022-07-30T01:28:47.345Z,15.80
2022-07-30T01:29:46.263Z,15.84
2022-07-30T01:30:46.279Z,15.77
2022-07-30T01:31:46.328Z,15.76
2022-07-30T01:32:48.128Z,15.80
2022-07-30T01:33:49.095Z,15.77
2022-07-30T01:34:46.208Z,15.73
2022-07-30T01:35:46.207Z,15.74
2022-07-30T01:36:46.195Z,15.70
2022-07-30T01:37:46.197Z,15.74
2022-07-30T01:38:46.159Z,15.68
2022-07-30T01:39:46.154Z,15.70
2022-07-30T01:40:46.156Z,15.66
2022-07-30T01:41:57.159Z,15.70
2022-07-30T01:42:46.128Z,15.66
2022-07-30T01:43:46.118Z,15.67
2022-07-30T01:44:48.596Z,15.67
2022-07-30T01:45:46.650Z,15.70
2022-07-30T01:46:46.078Z,15.66
2022-07-30T01:47:46.195Z,15.67
2022-07-30T01:48:48.694Z,15.68
2022-07-30T01:49:46.039Z,15.52
2022-07-30T01:50:47.090Z,15.55
2022-07-30T01:51:46.020Z,15.68
2022-07-30T01:52:46.026Z,15.67
2022-07-30T01:53:46.027Z,15.67
2022-07-30T01:54:46.604Z,15.67
2022-07-30T01:55:45.981Z,15.52
2022-07-30T01:56:45.971Z,15.66
2022-07-30T01:57:45.955Z,15.60
2022-07-30T01:58:46.138Z,15.58
2022-07-30T01:59:46.598Z,15.53
2022-07-30T02:00:45.984Z,15.58
2022-07-30T02:01:46.604Z,15.52
2022-07-30T02:02:46.622Z,15.53
2022-07-30T02:03:45.996Z,15.59
2022-07-30T02:04:45.876Z,15.58
2022-07-30T02:05:46.187Z,15.53
2022-07-30T02:06:45.868Z,15.53
2022-07-30T02:07:46.616Z,15.55
2022-07-30T02:08:52.606Z,15.48
2022-07-30T02:09:47.403Z,15.46
2022-07-30T02:10:46.601Z,15.25
2022-07-30T02:11:46.160Z,15.28
2022-07-30T02:12:46.632Z,15.31
2022-07-30T02:13:46.606Z,15.28
2022-07-30T02:14:45.760Z,15.35
2022-07-30T02:15:45.773Z,15.33
2022-07-30T02:16:45.834Z,15.27
2022-07-30T02:17:46.606Z,15.33
2022-07-30T02:18:45.723Z,15.34
2022-07-30T02:19:45.717Z,15.34
2022-07-30T02:20:48.772Z,15.30
2022-07-30T02:21:50.792Z,15.31
2022-07-30T02:22:46.679Z,15.34
2022-07-30T02:23:45.671Z,15.37
2022-07-30T02:24:45.652Z,15.43
2022-07-30T02:25:45.650Z,15.28
2022-07-30T02:26:45.664Z,15.31
2022-07-30T02:27:45.629Z,15.41
2022-07-30T02:28:45.612Z,15.35
2022-07-30T02:29:46.115Z,15.31
2022-07-30T02:30:45.587Z,15.31
2022-07-30T02:31:45.607Z,15.37
2022-07-30T02:32:45.594Z,15.40
2022-07-30T02:33:49.010Z,15.33
2022-07-30T02:34:45.558Z,15.28
2022-07-30T02:35:46.100Z,15.35
2022-07-30T02:36:45.540Z,15.27
2022-07-30T02:37:45.639Z,15.23
2022-07-30T02:38:45.528Z,15.35
2022-07-30T02:39:46.532Z,15.33
2022-07-30T02:40:45.484Z,15.34
2022-07-30T02:41:49.648Z,15.25
2022-07-30T02:42:45.631Z,15.33
2022-07-30T02:43:48.113Z,15.28
2022-07-30T02:44:46.107Z,15.40
2022-07-30T02:45:45.430Z,15.31
2022-07-30T02:46:45.453Z,15.33
2022-07-30T02:47:45.406Z,15.37
2022-07-30T02:48:45.466Z,15.33
2022-07-30T02:49:45.395Z,15.33
2022-07-30T02:50:46.105Z,15.35
2022-07-30T02:51:45.382Z,15.33
2022-07-30T02:52:46.384Z,15.34
2022-07-30T02:53:45.356Z,15.35
2022-07-30T02:54:45.327Z,15.30
2022-07-30T02:55:45.316Z,15.30
2022-07-30T02:56:46.116Z,15.33
2022-07-30T02:57:45.291Z,15.31
2022-07-30T02:58:45.294Z,15.31
2022-07-30T02:59:47.160Z,15.28
2022-07-30T03:00:45.304Z,15.28
2022-07-30T03:01:45.406Z,15.25
2022-07-30T03:02:45.233Z,15.20
2022-07-30T03:03:47.121Z,15.28
2022-07-30T03:04:45.213Z,15.23
2022-07-30T03:05:45.217Z,15.16
2022-07-30T03:06:45.196Z,15.31
2022-07-30T03:07:45.183Z,15.20
2022-07-30T03:08:45.187Z,15.16
2022-07-30T03:09:51.097Z,15.15
2022-07-30T03:10:46.189Z,15.18
2022-07-30T03:11:45.142Z,15.23
2022-07-30T03:12:45.125Z,15.12
2022-07-30T03:13:45.131Z,15.12
2022-07-30T03:14:45.114Z,15.15
2022-07-30T03:15:45.093Z,15.12
2022-07-30T03:16:45.138Z,15.07
2022-07-30T03:17:45.068Z,15.13
2022-07-30T03:18:45.058Z,15.05
2022-07-30T03:19:46.098Z,15.09
2022-07-30T03:20:45.041Z,15.01
2022-07-30T03:21:45.140Z,15.05
2022-07-30T03:22:45.136Z,15.01
2022-07-30T03:23:45.016Z,15.04
2022-07-30T03:24:44.996Z,15.00
2022-07-30T03:25:44.990Z,15.00
2022-07-30T03:26:45.144Z,15.04
2022-07-30T03:27:44.991Z,15.01
2022-07-30T03:28:51.611Z,14.95
2022-07-30T03:29:44.952Z,15.01
2022-07-30T03:30:44.940Z,14.98
2022-07-30T03:31:45.066Z,14.95
2022-07-30T03:32:44.910Z,14.97
2022-07-30T03:33:44.925Z,14.98
2022-07-30T03:34:45.615Z,14.91
2022-07-30T03:35:44.903Z,14.93
2022-07-30T03:36:44.866Z,14.90
2022-07-30T03:37:44.865Z,14.91
2022-07-30T03:38:45.920Z,14.97
2022-07-30T03:39:44.832Z,14.86
2022-07-30T03:40:44.827Z,14.83
2022-07-30T03:41:44.814Z,14.97
2022-07-30T03:42:44.805Z,14.97
2022-07-30T03:43:44.799Z,14.87
2022-07-30T03:44:45.648Z,14.86
2022-07-30T03:45:45.157Z,14.90
2022-07-30T03:46:44.840Z,14.85
2022-07-30T03:47:44.739Z,14.94
2022-07-30T03:48:44.761Z,14.94
2022-07-30T03:49:44.725Z,14.90
2022-07-30T03:50:45.626Z,14.86
2022-07-30T03:51:48.148Z,14.94
2022-07-30T03:52:44.730Z,14.95
2022-07-30T03:53:44.691Z,14.93
2022-07-30T03:54:45.641Z,14.91
2022-07-30T03:55:44.663Z,14.90
2022-07-30T03:56:47.617Z,14.86
2022-07-30T03:57:45.661Z,14.85
2022-07-30T03:58:45.610Z,14.75
2022-07-30T03:59:45.696Z,14.75
2022-07-30T04:00:44.604Z,14.85
2022-07-30T04:01:44.617Z,14.87
2022-07-30T04:02:45.117Z,14.85
2022-07-30T04:03:45.183Z,14.80
2022-07-30T04:04:45.116Z,14.82
2022-07-30T04:05:44.578Z,14.80
2022-07-30T04:06:44.549Z,14.78
2022-07-30T04:07:45.667Z,14.78
2022-07-30T04:08:44.535Z,14.75
2022-07-30T04:09:44.505Z,14.79
2022-07-30T04:10:44.493Z,14.85
2022-07-30T04:11:44.491Z,14.91
2022-07-30T04:12:44.495Z,14.87
2022-07-30T04:13:44.469Z,14.90
2022-07-30T04:14:44.461Z,14.82
2022-07-30T04:16:37.283Z,14.86
2022-07-30T04:16:45.509Z,14.83
2022-07-30T04:17:44.443Z,14.83
2022-07-30T04:18:45.120Z,14.71
2022-07-30T04:19:45.121Z,14.69
2022-07-30T04:20:44.396Z,14.67
2022-07-30T04:21:44.386Z,14.74
2022-07-30T04:22:45.116Z,14.69
2022-07-30T04:24:04.082Z,14.59
2022-07-30T04:24:45.345Z,14.64
2022-07-30T04:25:44.345Z,14.57
2022-07-30T04:26:45.120Z,14.72
2022-07-30T04:28:03.068Z,14.63
2022-07-30T04:28:48.617Z,14.72
2022-07-30T04:29:45.329Z,14.69
2022-07-30T04:30:44.278Z,14.64
2022-07-30T04:31:44.709Z,14.67
2022-07-30T04:32:51.123Z,14.74
2022-07-30T04:33:45.159Z,14.66
2022-07-30T04:34:44.241Z,14.79
2022-07-30T04:35:51.557Z,14.63
2022-07-30T04:36:52.120Z,14.54
2022-07-30T04:37:44.202Z,14.53
2022-07-30T04:38:44.199Z,14.59
2022-07-30T04:39:44.199Z,14.56
2022-07-30T04:40:44.179Z,14.57
2022-07-30T04:41:49.742Z,14.54
2022-07-30T04:42:44.187Z,14.59
2022-07-30T04:43:44.133Z,14.48
2022-07-30T04:44:44.180Z,14.59
2022-07-30T04:45:44.120Z,14.59
2022-07-30T04:46:44.213Z,14.61
2022-07-30T04:47:46.620Z,14.67
2022-07-30T04:48:48.204Z,14.72
2022-07-30T04:49:44.083Z,14.71
2022-07-30T04:50:44.083Z,14.78
2022-07-30T04:51:44.619Z,14.75
2022-07-30T04:52:46.625Z,14.83
2022-07-30T04:53:44.037Z,14.78
2022-07-30T04:54:44.151Z,14.87
2022-07-30T04:55:44.045Z,14.82
2022-07-30T04:56:53.062Z,14.93
2022-07-30T04:57:44.992Z,14.94
2022-07-30T04:58:44.002Z,14.98
2022-07-30T04:59:43.963Z,15.05
2022-07-30T05:00:43.957Z,15.04
2022-07-30T05:01:43.998Z,15.09
2022-07-30T05:02:46.629Z,15.20
2022-07-30T05:03:43.926Z,15.19
2022-07-30T05:04:43.894Z,15.16
2022-07-30T05:05:43.979Z,15.16
2022-07-30T05:06:44.972Z,15.28
2022-07-30T05:07:43.877Z,15.30
2022-07-30T05:08:43.881Z,15.25
2022-07-30T05:09:44.857Z,15.28
2022-07-30T05:10:43.847Z,15.27
2022-07-30T05:11:44.629Z,15.33
2022-07-30T05:12:47.118Z,15.37
2022-07-30T05:13:46.155Z,15.33
2022-07-30T05:14:48.171Z,15.44
2022-07-30T05:15:43.839Z,15.44
2022-07-30T05:16:43.780Z,15.35
2022-07-30T05:17:44.158Z,15.51
2022-07-30T05:18:43.762Z,15.49
2022-07-30T05:19:45.829Z,15.43
2022-07-30T05:20:50.624Z,15.58
2022-07-30T05:21:44.754Z,15.56
2022-07-30T05:22:50.895Z,15.53
2022-07-30T05:23:51.622Z,15.49
2022-07-30T05:24:43.698Z,15.59
2022-07-30T05:25:43.685Z,15.62
2022-07-30T05:26:44.633Z,15.66
2022-07-30T05:27:43.679Z,15.52
2022-07-30T05:28:44.645Z,15.64
2022-07-30T05:29:44.627Z,15.78
2022-07-30T05:30:44.636Z,15.76
2022-07-30T05:31:43.610Z,15.81
2022-07-30T05:32:50.132Z,15.86
2022-07-30T05:33:43.599Z,15.88
2022-07-30T05:34:43.580Z,15.92
2022-07-30T05:35:44.597Z,15.89
2022-07-30T05:36:43.584Z,15.96
2022-07-30T05:37:46.126Z,15.93
2022-07-30T05:38:43.561Z,16.06
2022-07-30T05:39:57.568Z,16.03
2022-07-30T05:40:44.515Z,15.96
2022-07-30T05:41:43.537Z,16.01
2022-07-30T05:42:43.498Z,16.03
2022-07-30T05:43:46.131Z,16.10
2022-07-30T05:44:44.492Z,16.11
2022-07-30T05:45:50.178Z,16.08
2022-07-30T05:46:43.518Z,16.10
2022-07-30T05:47:43.446Z,16.11
2022-07-30T05:48:46.175Z,16.17
2022-07-30T05:49:43.456Z,16.25
2022-07-30T05:50:43.405Z,16.14
2022-07-30T05:51:43.668Z,16.26
2022-07-30T05:52:44.126Z,16.30
2022-07-30T05:53:43.381Z,16.32
2022-07-30T05:54:43.661Z,16.32
2022-07-30T05:55:46.128Z,16.29
2022-07-30T05:56:43.345Z,16.22
2022-07-30T05:57:43.328Z,16.34
2022-07-30T05:58:44.138Z,16.36
2022-07-30T05:59:43.331Z,16.36
2022-07-30T06:00:43.289Z,16.34
2022-07-30T06:01:43.361Z,16.41
2022-07-30T06:02:44.164Z,16.44
2022-07-30T06:03:43.260Z,16.45
2022-07-30T06:04:45.990Z,16.60
2022-07-30T06:05:43.237Z,16.62
2022-07-30T06:06:43.229Z,16.65
2022-07-30T06:07:43.235Z,16.75
2022-07-30T06:08:43.229Z,16.75
2022-07-30T06:09:43.211Z,16.77
2022-07-30T06:10:43.187Z,16.78
2022-07-30T06:11:43.192Z,16.82
2022-07-30T06:12:43.189Z,16.77
2022-07-30T06:13:43.164Z,16.82
2022-07-30T06:14:43.142Z,16.82
2022-07-30T06:15:43.201Z,16.84
2022-07-30T06:16:43.113Z,16.85
2022-07-30T06:17:43.137Z,17.00
2022-07-30T06:18:43.094Z,16.98
2022-07-30T06:19:44.117Z,16.99
2022-07-30T06:20:49.628Z,17.06
2022-07-30T06:22:06.262Z,17.05
2022-07-30T06:22:44.063Z,17.09
2022-07-30T06:23:43.056Z,17.17
2022-07-30T06:24:43.058Z,17.20
2022-07-30T06:25:43.171Z,17.25
2022-07-30T06:26:43.027Z,17.28
2022-07-30T06:27:43.187Z,17.28
2022-07-30T06:28:43.176Z,17.30
2022-07-30T06:29:42.977Z,17.28
2022-07-30T06:30:43.047Z,17.35
2022-07-30T06:31:42.970Z,17.28
2022-07-30T06:32:42.943Z,17.40
2022-07-30T06:33:43.065Z,17.54
2022-07-30T06:34:42.941Z,17.45
2022-07-30T06:35:43.032Z,17.53
2022-07-30T06:36:42.935Z,17.39
2022-07-30T06:38:05.711Z,17.55
2022-07-30T06:38:44.081Z,17.46
2022-07-30T06:39:57.803Z,17.55
2022-07-30T06:40:43.861Z,17.54
2022-07-30T06:41:42.872Z,17.39
2022-07-30T06:42:42.828Z,17.57
2022-07-30T06:43:42.885Z,17.49
2022-07-30T06:44:42.830Z,17.54
2022-07-30T06:45:42.901Z,17.49
2022-07-30T06:46:42.827Z,17.62
2022-07-30T06:47:42.908Z,17.68
2022-07-30T06:48:42.810Z,17.74
2022-07-30T06:49:42.922Z,17.73
2022-07-30T06:50:42.760Z,17.71
2022-07-30T06:51:42.782Z,17.80
2022-07-30T06:52:42.719Z,17.83
2022-07-30T06:53:43.036Z,17.73
2022-07-30T06:54:42.718Z,17.84
2022-07-30T06:55:42.761Z,17.81
2022-07-30T06:56:43.164Z,17.89
2022-07-30T06:57:42.862Z,17.87
2022-07-30T06:58:42.663Z,17.87
2022-07-30T06:59:57.332Z,17.96
2022-07-30T07:00:43.690Z,17.87
2022-07-30T07:01:42.684Z,17.84
2022-07-30T07:02:43.133Z,17.92
2022-07-30T07:03:42.813Z,17.98
2022-07-30T07:04:42.631Z,17.98
2022-07-30T07:05:43.649Z,17.96
2022-07-30T07:06:42.672Z,17.96
2022-07-30T07:07:52.427Z,17.98
2022-07-30T07:08:44.142Z,18.10
2022-07-30T07:09:44.622Z,18.05
2022-07-30T07:10:43.685Z,17.99
2022-07-30T07:11:42.514Z,18.01
2022-07-30T07:12:47.842Z,17.99
2022-07-30T07:13:42.537Z,18.05
2022-07-30T07:14:42.770Z,18.01
2022-07-30T07:15:42.481Z,18.13
2022-07-30T07:16:43.338Z,18.17
2022-07-30T07:17:43.467Z,18.20
2022-07-30T07:18:42.552Z,18.13
2022-07-30T07:20:01.684Z,18.19
2022-07-30T07:20:44.140Z,18.28
2022-07-30T07:21:45.186Z,18.29
2022-07-30T07:22:45.281Z,18.32
2022-07-30T07:23:42.792Z,18.32
2022-07-30T07:24:43.144Z,18.31
2022-07-30T07:25:42.555Z,18.38
2022-07-30T07:26:43.150Z,18.41
2022-07-30T07:27:42.567Z,18.41
2022-07-30T07:28:42.325Z,18.42
2022-07-30T07:29:42.330Z,18.42
2022-07-30T07:30:43.499Z,18.41
2022-07-30T07:32:06.152Z,18.41
2022-07-30T07:32:43.421Z,18.38
2022-07-30T07:33:42.268Z,18.35
2022-07-30T07:34:42.406Z,18.36
2022-07-30T07:35:49.651Z,18.41
2022-07-30T07:36:43.237Z,18.36
2022-07-30T07:37:42.432Z,18.26
2022-07-30T07:38:42.224Z,18.21
2022-07-30T07:39:42.485Z,18.32
2022-07-30T07:40:42.188Z,18.23
2022-07-30T07:41:48.752Z,18.28
2022-07-30T07:42:44.141Z,18.25
2022-07-30T07:43:42.252Z,18.13
2022-07-30T07:44:42.151Z,18.17
2022-07-30T07:45:43.434Z,18.21
2022-07-30T07:46:42.187Z,18.14
2022-07-30T07:47:42.294Z,18.26
2022-07-30T07:48:43.146Z,18.26
2022-07-30T07:49:42.100Z,18.23
2022-07-30T07:50:42.090Z,18.29
2022-07-30T07:51:47.166Z,18.26
2022-07-30T07:52:43.086Z,18.13
2022-07-30T07:53:42.131Z,18.23
2022-07-30T07:54:42.045Z,18.35
2022-07-30T07:55:42.156Z,18.31
2022-07-30T07:56:42.036Z,18.35
2022-07-30T07:57:43.226Z,18.31
2022-07-30T07:58:41.992Z,18.35
2022-07-30T07:59:42.178Z,18.51
2022-07-30T08:00:41.972Z,18.41
2022-07-30T08:01:42.250Z,18.44
2022-07-30T08:02:42.716Z,18.36
2022-07-30T08:03:41.968Z,18.39
2022-07-30T08:04:41.930Z,18.35
2022-07-30T08:05:58.249Z,18.29
2022-07-30T08:06:43.173Z,18.10
2022-07-30T08:07:42.020Z,18.17
2022-07-30T08:08:41.885Z,18.19
2022-07-30T08:09:44.698Z,18.23
2022-07-30T08:10:41.884Z,18.16
2022-07-30T08:11:42.046Z,18.14
2022-07-30T08:12:42.177Z,18.23
2022-07-30T08:13:51.329Z,18.23
2022-07-30T08:14:42.837Z,18.26
2022-07-30T08:15:41.920Z,18.20
2022-07-30T08:16:42.693Z,18.29
2022-07-30T08:17:41.815Z,18.34
2022-07-30T08:18:41.781Z,18.26
2022-07-30T08:19:42.835Z,18.26
2022-07-30T08:20:41.740Z,18.38
2022-07-30T08:21:42.680Z,18.47
2022-07-30T08:22:41.759Z,18.53
2022-07-30T08:23:42.663Z,18.44
2022-07-30T08:24:42.656Z,18.44
2022-07-30T08:25:41.719Z,18.51
2022-07-30T08:26:42.681Z,18.66
2022-07-30T08:27:41.672Z,18.51
2022-07-30T08:28:41.663Z,18.57
2022-07-30T08:29:41.667Z,18.56
2022-07-30T08:30:41.648Z,18.62
2022-07-30T08:31:48.156Z,18.62
2022-07-30T08:32:41.646Z,18.65
2022-07-30T08:33:41.628Z,18.75
2022-07-30T08:34:41.597Z,18.82
2022-07-30T08:35:48.594Z,18.72
2022-07-30T08:36:43.151Z,18.76
2022-07-30T08:37:41.569Z,18.83
2022-07-30T08:38:41.569Z,18.79
2022-07-30T08:39:41.699Z,18.82
2022-07-30T08:40:41.537Z,18.84
2022-07-30T08:41:42.532Z,18.86
2022-07-30T08:42:41.511Z,18.76
2022-07-30T08:43:42.512Z,18.75
2022-07-30T08:44:41.500Z,18.76
2022-07-30T08:45:41.540Z,18.74
2022-07-30T08:46:41.499Z,18.90
2022-07-30T08:47:42.469Z,18.97
2022-07-30T08:48:41.540Z,19.10
2022-07-30T08:49:41.460Z,19.13
2022-07-30T08:50:41.420Z,19.17
2022-07-30T08:51:41.693Z,19.16
2022-07-30T08:52:41.399Z,19.24
2022-07-30T08:53:41.399Z,19.27
2022-07-30T08:54:41.382Z,19.27
2022-07-30T08:55:41.372Z,19.30
2022-07-30T08:56:41.443Z,19.23
2022-07-30T08:57:41.346Z,19.40
2022-07-30T08:58:42.157Z,19.47
2022-07-30T08:59:52.975Z,19.57
2022-07-30T09:00:43.165Z,19.62
2022-07-30T09:01:41.350Z,19.57
2022-07-30T09:02:41.295Z,19.67
2022-07-30T09:03:44.173Z,19.58
2022-07-30T09:04:48.160Z,19.52
2022-07-30T09:05:41.260Z,19.60
2022-07-30T09:06:41.310Z,19.67
2022-07-30T09:07:41.700Z,19.61
2022-07-30T09:08:41.284Z,19.64
2022-07-30T09:09:41.224Z,19.58
2022-07-30T09:10:52.828Z,19.65
2022-07-30T09:11:42.197Z,19.80
2022-07-30T09:12:41.216Z,19.64
2022-07-30T09:13:41.197Z,19.68
2022-07-30T09:14:41.183Z,19.67
2022-07-30T09:15:41.153Z,19.90
2022-07-30T09:16:41.175Z,19.95
2022-07-30T09:17:41.194Z,19.90
2022-07-30T09:18:41.128Z,20.00
2022-07-30T09:19:41.119Z,20.00
2022-07-30T09:20:41.106Z,19.98
2022-07-30T09:21:43.658Z,20.08
2022-07-30T09:23:02.103Z,20.08
2022-07-30T09:23:41.068Z,20.16
2022-07-30T09:24:43.665Z,19.98
2022-07-30T09:25:41.058Z,20.15
2022-07-30T09:26:43.671Z,20.15
2022-07-30T09:27:41.035Z,20.12
2022-07-30T09:28:41.186Z,20.10
2022-07-30T09:29:41.004Z,20.22
2022-07-30T09:30:40.989Z,20.27
2022-07-30T09:31:43.710Z,20.40
2022-07-30T09:32:40.970Z,20.51
2022-07-30T09:33:40.994Z,20.53
2022-07-30T09:34:41.666Z,20.64
2022-07-30T09:35:42.002Z,20.64
2022-07-30T09:36:47.663Z,20.68
2022-07-30T09:37:40.928Z,20.66
2022-07-30T09:38:40.914Z,20.64
2022-07-30T09:39:40.937Z,20.75
2022-07-30T09:40:42.951Z,20.75
2022-07-30T09:41:40.890Z,20.81
2022-07-30T09:42:47.675Z,20.75
2022-07-30T09:43:40.859Z,20.97
2022-07-30T09:44:41.907Z,20.88
2022-07-30T09:45:40.869Z,20.87
2022-07-30T09:46:41.828Z,20.82
2022-07-30T09:47:40.821Z,20.88
2022-07-30T09:48:40.868Z,21.05
2022-07-30T09:49:49.734Z,21.13
2022-07-30T09:50:40.785Z,21.27
2022-07-30T09:51:56.515Z,21.27
2022-07-30T09:52:43.860Z,21.27
2022-07-30T09:53:43.671Z,21.37
2022-07-30T09:54:40.729Z,21.49
2022-07-30T09:55:42.314Z,21.58
2022-07-30T09:56:53.985Z,21.61
2022-07-30T09:57:41.725Z,21.79
2022-07-30T09:58:45.664Z,21.83
2022-07-30T09:59:40.728Z,21.83
2022-07-30T10:00:42.310Z,21.86
2022-07-30T10:01:49.515Z,21.75
2022-07-30T10:02:41.663Z,21.83
2022-07-30T10:03:42.083Z,21.91
2022-07-30T10:04:40.630Z,21.91
2022-07-30T10:05:40.614Z,21.86
2022-07-30T10:06:41.951Z,21.94
2022-07-30T10:07:43.613Z,22.01
2022-07-30T10:08:40.584Z,22.06
2022-07-30T10:09:40.607Z,22.05
2022-07-30T10:10:47.228Z,22.02
2022-07-30T10:11:41.547Z,22.05
2022-07-30T10:12:40.567Z,22.17
2022-07-30T10:13:43.969Z,22.21
2022-07-30T10:14:42.336Z,22.15
2022-07-30T10:15:40.509Z,22.20
2022-07-30T10:16:41.174Z,22.21
2022-07-30T10:17:41.555Z,22.26
2022-07-30T10:18:40.477Z,22.41
2022-07-30T10:19:41.810Z,22.42
2022-07-30T10:20:40.914Z,22.44
2022-07-30T10:21:40.443Z,22.57
2022-07-30T10:22:40.436Z,22.69
2022-07-30T10:23:44.188Z,22.70
2022-07-30T10:24:40.417Z,22.70
2022-07-30T10:25:49.656Z,22.70
2022-07-30T10:26:41.386Z,22.79
2022-07-30T10:27:41.194Z,22.94
2022-07-30T10:28:41.202Z,23.06
2022-07-30T10:29:42.711Z,23.06
2022-07-30T10:30:40.378Z,23.00
2022-07-30T10:31:47.352Z,23.03
2022-07-30T10:32:56.170Z,23.21
2022-07-30T10:33:42.213Z,23.23
2022-07-30T10:34:42.358Z,23.35
2022-07-30T10:35:41.361Z,23.26
2022-07-30T10:36:40.298Z,23.29
2022-07-30T10:37:43.179Z,23.32
2022-07-30T10:38:41.462Z,23.25
2022-07-30T10:39:40.279Z,23.32
2022-07-30T10:40:40.236Z,23.32
2022-07-30T10:41:47.541Z,23.29
2022-07-30T10:42:41.209Z,23.26
2022-07-30T10:43:40.213Z,23.21
2022-07-30T10:44:40.640Z,23.44
2022-07-30T10:45:43.747Z,23.45
2022-07-30T10:46:41.216Z,23.38
2022-07-30T10:47:44.530Z,23.26
2022-07-30T10:48:41.149Z,23.19
2022-07-30T10:49:41.315Z,23.31
2022-07-30T10:50:40.140Z,23.54
2022-07-30T10:51:40.678Z,23.74
2022-07-30T10:52:40.146Z,23.79
2022-07-30T10:53:40.100Z,23.87
2022-07-30T10:54:40.679Z,24.02
2022-07-30T10:55:40.078Z,24.02
2022-07-30T10:56:40.071Z,23.96
2022-07-30T10:57:42.674Z,23.89
2022-07-30T10:58:40.203Z,23.93
2022-07-30T10:59:47.691Z,23.82
2022-07-30T11:00:40.118Z,23.89
2022-07-30T11:01:40.008Z,23.90
2022-07-30T11:02:40.034Z,23.97
2022-07-30T11:03:45.181Z,24.02
2022-07-30T11:04:55.685Z,23.93
2022-07-30T11:05:45.576Z,24.11
2022-07-30T11:06:40.958Z,24.15
2022-07-30T11:07:39.963Z,24.31
2022-07-30T11:08:42.642Z,24.34
2022-07-30T11:09:40.885Z,24.41
2022-07-30T11:10:43.874Z,24.42
2022-07-30T11:12:02.018Z,24.59
2022-07-30T11:12:40.898Z,24.51
2022-07-30T11:13:40.693Z,24.59
2022-07-30T11:14:40.868Z,24.61
2022-07-30T11:15:40.683Z,24.66
2022-07-30T11:16:40.750Z,24.74
2022-07-30T11:17:40.226Z,24.87
2022-07-30T11:18:39.824Z,24.61
2022-07-30T11:19:53.181Z,24.80
2022-07-30T11:20:40.819Z,24.93
2022-07-30T11:21:40.237Z,25.11
2022-07-30T11:22:39.782Z,25.26
2022-07-30T11:23:40.862Z,25.30
2022-07-30T11:24:39.791Z,25.42
2022-07-30T11:25:50.245Z,25.01
2022-07-30T11:26:41.180Z,24.87
2022-07-30T11:27:41.404Z,24.97
2022-07-30T11:28:40.686Z,24.92
2022-07-30T11:29:51.161Z,24.98
2022-07-30T11:30:40.734Z,25.07
2022-07-30T11:31:58.651Z,25.17
2022-07-30T11:32:40.672Z,25.20
2022-07-30T11:33:40.301Z,25.27
2022-07-30T11:34:41.214Z,24.90
2022-07-30T11:35:40.233Z,24.67
2022-07-30T11:36:40.205Z,24.70
2022-07-30T11:37:41.198Z,24.61
2022-07-30T11:38:40.596Z,24.80
2022-07-30T11:39:41.228Z,24.84
2022-07-30T11:40:39.625Z,25.02
2022-07-30T11:41:40.202Z,25.02
2022-07-30T11:42:40.195Z,24.82
2022-07-30T11:43:42.191Z,24.75
2022-07-30T11:44:40.197Z,24.79
2022-07-30T11:45:39.558Z,24.94
2022-07-30T11:46:40.233Z,25.08
2022-07-30T11:47:39.506Z,25.29
2022-07-30T11:48:40.221Z,25.44
2022-07-30T11:49:40.193Z,25.51
2022-07-30T11:50:40.196Z,25.71
2022-07-30T11:51:40.263Z,25.72
2022-07-30T11:52:39.450Z,25.72
2022-07-30T11:53:42.199Z,25.78
2022-07-30T11:54:40.250Z,25.97
2022-07-30T11:55:40.230Z,25.85
2022-07-30T11:56:40.259Z,26.06
2022-07-30T11:57:42.206Z,25.89
2022-07-30T11:58:42.193Z,26.00
2022-07-30T11:59:48.319Z,26.17
2022-07-30T12:00:40.262Z,26.29
2022-07-30T12:01:44.732Z,26.13
2022-07-30T12:02:54.190Z,26.04
2022-07-30T12:03:42.202Z,26.19
2022-07-30T12:04:42.248Z,25.98
2022-07-30T12:05:42.208Z,26.09
2022-07-30T12:06:42.195Z,25.81
2022-07-30T12:07:53.730Z,25.81
2022-07-30T12:08:39.275Z,25.74
2022-07-30T12:09:43.905Z,25.57
2022-07-30T12:10:40.204Z,25.76
2022-07-30T12:11:46.211Z,25.82
2022-07-30T12:12:39.256Z,25.29
2022-07-30T12:13:44.577Z,25.17
2022-07-30T12:14:42.215Z,25.38
2022-07-30T12:15:46.199Z,25.53
2022-07-30T12:16:39.217Z,25.76
2022-07-30T12:17:41.706Z,25.93
2022-07-30T12:18:41.719Z,26.17
2022-07-30T12:19:47.347Z,26.19
2022-07-30T12:20:42.702Z,26.28
2022-07-30T12:21:41.167Z,26.31
2022-07-30T12:22:39.147Z,26.38
2022-07-30T12:23:41.227Z,26.50
2022-07-30T12:24:40.426Z,26.60
2022-07-30T12:25:39.101Z,26.39
2022-07-30T12:26:40.701Z,26.31
2022-07-30T12:27:40.726Z,26.38
2022-07-30T12:28:41.152Z,26.04
2022-07-30T12:29:41.709Z,25.76
2022-07-30T12:30:41.732Z,25.41
2022-07-30T12:31:39.858Z,25.34
2022-07-30T12:32:41.704Z,25.59
2022-07-30T12:33:42.278Z,25.76
2022-07-30T12:34:41.708Z,25.78
2022-07-30T12:35:41.701Z,25.67
2022-07-30T12:36:38.983Z,25.53
2022-07-30T12:37:42.267Z,25.54
2022-07-30T12:38:38.954Z,25.30
2022-07-30T12:39:40.734Z,25.27
2022-07-30T12:40:38.942Z,25.11
2022-07-30T12:41:41.717Z,25.11
2022-07-30T12:42:38.920Z,24.93
2022-07-30T12:43:41.707Z,24.80
2022-07-30T12:44:41.770Z,24.93
2022-07-30T12:45:51.999Z,25.17
2022-07-30T12:46:40.713Z,25.59
2022-07-30T12:47:40.600Z,25.82
2022-07-30T12:48:38.873Z,26.11
2022-07-30T12:49:48.875Z,26.08
2022-07-30T12:50:40.881Z,26.08
2022-07-30T12:51:38.811Z,26.03
2022-07-30T12:52:38.812Z,25.94